createdAt,value
2023-02-14T00:01:22.563Z,6.34
2023-02-14T00:03:49.818Z,6.38
2023-02-14T00:06:17.318Z,6.37
2023-02-14T00:08:45.139Z,6.35
2023-02-14T00:11:14.152Z,6.31
2023-02-14T00:14:01.981Z,6.36
2023-02-14T00:16:29.096Z,6.40
2023-02-14T00:19:06.137Z,6.40
2023-02-14T00:21:36.736Z,6.42
2023-02-14T00:24:21.294Z,6.44
2023-02-14T00:26:49.046Z,6.44
2023-02-14T00:29:29.660Z,6.45
2023-02-14T00:31:57.233Z,6.44
2023-02-14T00:34:24.952Z,6.41
2023-02-14T00:36:52.069Z,6.43
2023-02-14T00:39:20.530Z,6.41
2023-02-14T00:41:47.845Z,6.43
2023-02-14T00:44:15.220Z,6.45
2023-02-14T00:46:42.596Z,6.45
2023-02-14T00:49:10.247Z,6.48
2023-02-14T00:51:37.481Z,6.51
2023-02-14T00:54:04.938Z,6.52
2023-02-14T00:56:32.538Z,6.52
2023-02-14T00:59:00.172Z,6.52
2023-02-14T01:01:27.579Z,6.53
2023-02-14T01:03:54.980Z,6.51
2023-02-14T01:06:22.032Z,6.49
2023-02-14T01:08:49.282Z,6.52
2023-02-14T01:11:21.061Z,6.53
2023-02-14T01:13:51.456Z,6.51
2023-02-14T01:16:22.322Z,6.49
2023-02-14T01:18:50.346Z,6.50
2023-02-14T01:21:28.288Z,6.49
2023-02-14T01:24:01.328Z,6.52
2023-02-14T01:26:29.791Z,6.54
2023-02-14T01:28:57.684Z,6.52
2023-02-14T01:31:28.470Z,6.50
2023-02-14T01:33:56.744Z,6.50
2023-02-14T01:36:39.921Z,6.48
2023-02-14T01:39:12.682Z,6.46
2023-02-14T01:41:42.515Z,6.45
2023-02-14T01:44:15.857Z,6.44
2023-02-14T01:46:45.602Z,6.46
2023-02-14T01:49:35.040Z,6.45
2023-02-14T01:52:17.345Z,6.43
2023-02-14T01:54:54.935Z,6.44
2023-02-14T01:57:28.322Z,6.39
2023-02-14T02:00:20.580Z,6.41
2023-02-14T02:02:47.798Z,6.39
2023-02-14T02:05:17.594Z,6.41
2023-02-14T02:07:44.600Z,6.39
2023-02-14T02:10:12.091Z,6.37
2023-02-14T02:12:40.252Z,6.39
2023-02-14T02:15:08.539Z,6.36
2023-02-14T02:18:00.464Z,6.32
2023-02-14T02:20:36.743Z,6.32
2023-02-14T02:23:50.020Z,6.32
2023-02-14T02:26:57.033Z,6.32
2023-02-14T02:29:48.317Z,6.32
2023-02-14T02:33:01.832Z,6.33
2023-02-14T02:35:50.186Z,6.28
2023-02-14T02:38:45.077Z,6.31
2023-02-14T02:41:56.143Z,6.34
2023-02-14T02:44:48.541Z,6.30
2023-02-14T02:47:44.362Z,6.25
2023-02-14T02:51:03.007Z,6.21
2023-02-14T02:53:51.708Z,6.15
2023-02-14T02:56:46.046Z,6.12
2023-02-14T02:59:30.984Z,6.08
2023-02-14T03:02:15.682Z,6.07
2023-02-14T03:04:56.182Z,6.07
2023-02-14T03:07:40.440Z,6.10
2023-02-14T03:10:07.605Z,6.11
2023-02-14T03:12:34.742Z,6.10
2023-02-14T03:15:26.739Z,6.12
2023-02-14T03:18:57.776Z,6.11
2023-02-14T03:21:52.444Z,6.11
2023-02-14T03:24:56.315Z,6.09
2023-02-14T03:27:38.837Z,6.12
2023-02-14T03:30:31.487Z,6.14
2023-02-14T03:33:18.398Z,6.16
2023-02-14T03:36:03.003Z,6.19
2023-02-14T03:38:43.993Z,6.20
2023-02-14T03:41:31.789Z,6.24
2023-02-14T03:44:05.485Z,6.27
2023-02-14T03:47:11.491Z,6.28
2023-02-14T03:49:51.293Z,6.28
2023-02-14T03:52:21.246Z,6.29
2023-02-14T03:54:54.483Z,6.27
2023-02-14T03:57:40.043Z,6.25
2023-02-14T04:00:08.465Z,6.24
2023-02-14T04:02:51.841Z,6.26
2023-02-14T04:05:27.802Z,6.30
2023-02-14T04:07:58.875Z,6.20
2023-02-14T04:10:27.299Z,6.27
2023-02-14T04:12:54.651Z,6.27
2023-02-14T04:15:22.154Z,6.28
2023-02-14T04:18:08.220Z,6.24
2023-02-14T04:20:37.258Z,6.18
2023-02-14T04:23:10.607Z,6.06
2023-02-14T04:25:40.041Z,6.03
2023-02-14T04:28:07.543Z,6.06
2023-02-14T04:30:34.785Z,6.08
2023-02-14T04:33:03.545Z,6.07
2023-02-14T04:35:31.375Z,6.07
2023-02-14T04:37:58.915Z,6.06
2023-02-14T04:40:26.118Z,6.08
2023-02-14T04:42:53.840Z,6.11
2023-02-14T04:45:21.250Z,6.15
2023-02-14T04:47:48.717Z,6.15
2023-02-14T04:50:17.366Z,6.13
2023-02-14T04:52:44.588Z,6.11
2023-02-14T04:55:11.609Z,5.97
2023-02-14T04:57:38.928Z,5.88
2023-02-14T05:00:07.397Z,5.84
2023-02-14T05:02:34.814Z,5.79
2023-02-14T05:05:01.816Z,5.86
2023-02-14T05:07:29.150Z,5.86
2023-02-14T05:09:56.204Z,5.85
2023-02-14T05:12:23.572Z,5.88
2023-02-14T05:14:50.760Z,5.91
2023-02-14T05:17:18.101Z,5.92
2023-02-14T05:19:45.324Z,5.92
2023-02-14T05:22:12.631Z,5.94
2023-02-14T05:24:39.646Z,5.96
2023-02-14T05:27:07.642Z,6.04
2023-02-14T05:29:34.627Z,6.08
2023-02-14T05:32:02.053Z,6.08
2023-02-14T05:34:29.297Z,6.07
2023-02-14T05:36:57.717Z,6.08
2023-02-14T05:39:24.733Z,6.05
2023-02-14T05:41:52.498Z,6.02
2023-02-14T05:44:19.378Z,6.01
2023-02-14T05:46:46.752Z,5.98
2023-02-14T05:49:13.992Z,5.94
2023-02-14T05:51:41.162Z,5.92
2023-02-14T05:54:10.028Z,6.00
2023-02-14T05:56:38.327Z,6.04
2023-02-14T05:59:05.317Z,6.06
2023-02-14T06:01:32.478Z,6.05
2023-02-14T06:03:59.431Z,6.05
2023-02-14T06:06:30.670Z,6.03
2023-02-14T06:09:16.436Z,6.04
2023-02-14T06:11:43.813Z,6.07
2023-02-14T06:14:11.038Z,6.13
2023-02-14T06:16:38.246Z,6.04
2023-02-14T06:19:05.552Z,6.08
2023-02-14T06:21:35.168Z,6.09
2023-02-14T06:24:02.336Z,6.09
2023-02-14T06:26:29.766Z,6.05
2023-02-14T06:28:59.080Z,6.05
2023-02-14T06:31:26.602Z,6.09
2023-02-14T06:33:55.140Z,6.09
2023-02-14T06:36:25.863Z,6.07
2023-02-14T06:38:53.695Z,6.10
2023-02-14T06:42:01.357Z,6.19
2023-02-14T06:44:28.510Z,6.15
2023-02-14T06:46:55.835Z,6.14
2023-02-14T06:49:23.952Z,6.20
2023-02-14T06:51:51.156Z,6.25
2023-02-14T06:54:18.302Z,6.29
2023-02-14T06:56:45.548Z,6.33
2023-02-14T06:59:12.691Z,6.28
2023-02-14T07:01:40.042Z,6.25
2023-02-14T07:04:06.958Z,6.25
2023-02-14T07:06:34.081Z,6.22
2023-02-14T07:09:00.965Z,6.18
2023-02-14T07:11:28.739Z,6.13
2023-02-14T07:13:56.009Z,6.14
2023-02-14T07:16:23.286Z,6.19
2023-02-14T07:18:50.262Z,6.22
2023-02-14T07:21:17.470Z,6.24
2023-02-14T07:23:47.786Z,6.26
2023-02-14T07:26:18.403Z,6.26
2023-02-14T07:28:48.761Z,6.24
2023-02-14T07:31:17.207Z,6.18
2023-02-14T07:33:44.672Z,6.18
2023-02-14T07:36:12.331Z,6.24
2023-02-14T07:38:39.338Z,6.25
2023-02-14T07:41:06.535Z,6.24
2023-02-14T07:43:34.536Z,6.24
2023-02-14T07:46:03.566Z,6.31
2023-02-14T07:48:33.123Z,6.33
2023-02-14T07:51:01.993Z,6.30
2023-02-14T07:53:29.267Z,6.33
2023-02-14T07:55:57.087Z,6.36
2023-02-14T07:58:24.044Z,6.40
2023-02-14T08:00:51.404Z,6.44
2023-02-14T08:03:18.947Z,6.44
2023-02-14T08:05:57.180Z,6.46
2023-02-14T08:08:31.274Z,6.46
2023-02-14T08:10:59.981Z,6.44
2023-02-14T08:13:27.773Z,6.38
2023-02-14T08:16:04.593Z,6.38
2023-02-14T08:18:41.567Z,6.35
2023-02-14T08:21:11.252Z,6.40
2023-02-14T08:23:38.589Z,6.39
2023-02-14T08:26:06.596Z,6.43
2023-02-14T08:28:34.998Z,6.49
2023-02-14T08:31:04.603Z,6.53
2023-02-14T08:33:31.799Z,6.49
2023-02-14T08:35:59.071Z,6.51
2023-02-14T08:38:26.226Z,6.52
2023-02-14T08:40:53.568Z,6.55
2023-02-14T08:43:20.884Z,6.53
2023-02-14T08:45:49.712Z,6.55
2023-02-14T08:48:16.699Z,6.59
2023-02-14T08:50:44.149Z,6.58
2023-02-14T08:53:13.622Z,6.60
2023-02-14T08:55:41.168Z,6.60
2023-02-14T08:58:08.498Z,6.62
2023-02-14T09:00:36.250Z,6.64
2023-02-14T09:03:03.502Z,6.70
2023-02-14T09:05:31.109Z,6.70
2023-02-14T09:07:58.132Z,6.75
2023-02-14T09:10:26.653Z,6.84
2023-02-14T09:12:55.209Z,6.88
2023-02-14T09:15:22.528Z,6.91
2023-02-14T09:17:51.171Z,6.86
2023-02-14T09:20:18.596Z,6.81
2023-02-14T09:22:47.697Z,6.84
2023-02-14T09:25:17.492Z,6.85
2023-02-14T09:27:44.659Z,6.93
2023-02-14T09:30:13.045Z,6.86
2023-02-14T09:32:40.092Z,6.86
2023-02-14T09:35:07.956Z,6.92
2023-02-14T09:37:53.330Z,6.89
2023-02-14T09:40:21.252Z,6.84
2023-02-14T09:42:54.111Z,6.88
2023-02-14T09:45:30.931Z,6.94
2023-02-14T09:48:18.267Z,6.98
2023-02-14T09:51:00.492Z,7.02
2023-02-14T09:53:33.451Z,6.99
2023-02-14T09:56:28.474Z,7.05
2023-02-14T09:59:09.038Z,7.14
2023-02-14T10:01:46.103Z,7.19
2023-02-14T10:04:39.775Z,7.13
2023-02-14T10:07:43.254Z,7.21
2023-02-14T10:10:40.688Z,7.28
2023-02-14T10:13:19.015Z,7.24
2023-02-14T10:15:58.985Z,7.16
2023-02-14T10:19:01.715Z,7.06
2023-02-14T10:21:40.404Z,7.17
2023-02-14T10:24:36.959Z,7.25
2023-02-14T10:27:18.353Z,7.28
2023-02-14T10:29:45.670Z,7.23
2023-02-14T10:32:35.182Z,7.33
2023-02-14T10:35:23.559Z,7.30
2023-02-14T10:38:17.642Z,7.33
2023-02-14T10:41:19.182Z,7.31
2023-02-14T10:44:38.762Z,7.37
2023-02-14T10:48:01.448Z,7.42
2023-02-14T10:51:18.654Z,7.38
2023-02-14T10:54:18.934Z,7.25
2023-02-14T10:57:13.249Z,7.19
2023-02-14T10:59:46.499Z,7.25
2023-02-14T11:02:18.507Z,7.20
2023-02-14T11:04:47.953Z,7.28
2023-02-14T11:07:21.682Z,7.33
2023-02-14T11:09:48.954Z,7.23
2023-02-14T11:12:40.671Z,7.30
2023-02-14T11:15:14.210Z,7.36
2023-02-14T11:17:42.673Z,7.37
2023-02-14T11:20:19.961Z,7.40
2023-02-14T11:22:47.065Z,7.44
2023-02-14T11:25:28.790Z,7.51
2023-02-14T11:28:16.974Z,7.41
2023-02-14T11:30:47.851Z,7.26
2023-02-14T11:33:30.161Z,7.31
2023-02-14T11:35:58.489Z,7.25
2023-02-14T11:38:38.348Z,7.22
2023-02-14T11:41:16.320Z,7.33
2023-02-14T11:43:45.662Z,7.37
2023-02-14T11:46:27.173Z,7.43
2023-02-14T11:48:57.797Z,7.53
2023-02-14T11:51:45.368Z,7.55
2023-02-14T11:54:36.868Z,7.56
2023-02-14T11:57:13.186Z,7.53
2023-02-14T11:59:50.624Z,7.62
2023-02-14T12:02:49.182Z,7.68
2023-02-14T12:05:49.324Z,7.75
2023-02-14T12:08:27.041Z,7.64
2023-02-14T12:11:22.230Z,7.73
2023-02-14T12:13:58.865Z,7.83
2023-02-14T12:16:43.154Z,7.64
2023-02-14T12:19:20.771Z,7.61
2023-02-14T12:22:19.138Z,7.65
2023-02-14T12:25:07.692Z,7.63
2023-02-14T12:28:07.557Z,7.69
2023-02-14T12:30:35.869Z,7.67
2023-02-14T12:33:05.007Z,7.69
2023-02-14T12:35:41.271Z,7.65
2023-02-14T12:38:30.130Z,7.75
2023-02-14T12:41:45.270Z,7.71
2023-02-14T12:44:44.256Z,7.82
2023-02-14T12:47:58.621Z,7.87
2023-02-14T12:50:41.264Z,7.99
2023-02-14T12:54:04.842Z,7.98
2023-02-14T12:57:04.775Z,7.91
2023-02-14T13:00:19.784Z,7.83
2023-02-14T13:03:26.868Z,7.78
2023-02-14T13:06:23.269Z,7.78
2023-02-14T13:09:14.877Z,7.70
2023-02-14T13:12:16.850Z,7.64
2023-02-14T13:15:48.935Z,7.76
2023-02-14T13:18:16.245Z,7.88
2023-02-14T13:20:52.328Z,7.88
2023-02-14T13:23:36.620Z,7.88
2023-02-14T13:26:46.170Z,7.93
2023-02-14T13:29:27.257Z,7.89
2023-02-14T13:32:02.058Z,7.83
2023-02-14T13:34:34.815Z,7.98
2023-02-14T13:37:08.145Z,7.95
2023-02-14T13:40:04.824Z,7.70
2023-02-14T13:42:47.847Z,7.94
2023-02-14T13:45:39.834Z,7.96
2023-02-14T13:48:20.498Z,7.97
2023-02-14T13:50:59.423Z,7.82
2023-02-14T13:53:39.424Z,7.84
2023-02-14T13:56:29.164Z,7.91
2023-02-14T13:59:36.675Z,7.94
2023-02-14T14:02:30.227Z,7.77
2023-02-14T14:04:58.175Z,7.84
2023-02-14T14:07:32.254Z,7.82
2023-02-14T14:10:02.613Z,7.83
2023-02-14T14:12:39.787Z,7.84
2023-02-14T14:15:06.903Z,7.84
2023-02-14T14:17:50.559Z,7.93
2023-02-14T14:20:20.382Z,8.05
2023-02-14T14:22:56.139Z,8.06
2023-02-14T14:25:42.886Z,8.13
2023-02-14T14:28:20.920Z,8.11
2023-02-14T14:30:48.597Z,8.07
2023-02-14T14:33:31.773Z,8.06
2023-02-14T14:36:06.074Z,8.16
2023-02-14T14:38:47.255Z,8.17
2023-02-14T14:41:14.574Z,8.12
2023-02-14T14:43:42.577Z,8.07
2023-02-14T14:46:14.410Z,7.93
2023-02-14T14:48:51.572Z,7.84
2023-02-14T14:51:32.218Z,7.85
2023-02-14T14:54:20.016Z,7.80
2023-02-14T14:57:08.165Z,7.85
2023-02-14T14:59:40.348Z,7.87
2023-02-14T15:02:50.829Z,7.84
2023-02-14T15:05:38.641Z,7.66
2023-02-14T15:08:33.711Z,7.70
2023-02-14T15:11:11.459Z,7.79
2023-02-14T15:13:50.010Z,7.69
2023-02-14T15:17:17.986Z,7.60
2023-02-14T15:19:54.413Z,7.61
2023-02-14T15:22:48.193Z,7.68
2023-02-14T15:25:45.995Z,7.75
2023-02-14T15:28:31.461Z,7.74
2023-02-14T15:31:06.178Z,7.72
2023-02-14T15:33:42.059Z,7.69
2023-02-14T15:36:21.439Z,7.68
2023-02-14T15:38:49.020Z,7.70
2023-02-14T15:41:17.496Z,7.64
2023-02-14T15:43:59.309Z,7.59
2023-02-14T15:46:39.147Z,7.58
2023-02-14T15:49:11.506Z,7.47
2023-02-14T15:51:44.088Z,7.41
2023-02-14T15:54:31.307Z,7.35
2023-02-14T15:56:58.874Z,7.20
2023-02-14T15:59:34.640Z,7.26
2023-02-14T16:02:38.089Z,7.23
2023-02-14T16:05:20.986Z,7.16
2023-02-14T16:08:05.723Z,7.07
2023-02-14T16:10:38.673Z,7.14
2023-02-14T16:13:14.928Z,7.09
2023-02-14T16:15:59.177Z,7.05
2023-02-14T16:18:53.015Z,7.09
2023-02-14T16:21:33.889Z,7.05
2023-02-14T16:24:07.099Z,7.03
2023-02-14T16:26:39.201Z,7.01
2023-02-14T16:29:15.614Z,7.11
2023-02-14T16:32:15.094Z,7.17
2023-02-14T16:34:41.824Z,7.13
2023-02-14T16:37:20.358Z,7.11
2023-02-14T16:39:48.930Z,7.04
2023-02-14T16:42:18.386Z,7.09
2023-02-14T16:44:46.937Z,7.15
2023-02-14T16:47:18.117Z,7.06
2023-02-14T16:49:46.864Z,7.14
2023-02-14T16:52:21.218Z,7.23
2023-02-14T16:54:50.012Z,7.24
2023-02-14T16:57:28.188Z,7.24
2023-02-14T16:59:56.764Z,7.21
2023-02-14T17:02:28.247Z,7.18
2023-02-14T17:04:55.843Z,7.19
2023-02-14T17:07:23.873Z,7.16
2023-02-14T17:09:57.680Z,7.04
2023-02-14T17:12:33.256Z,7.04
2023-02-14T17:15:08.215Z,7.08
2023-02-14T17:17:37.714Z,7.07
2023-02-14T17:20:08.363Z,7.04
2023-02-14T17:22:37.586Z,7.13
2023-02-14T17:25:06.109Z,7.13
2023-02-14T17:27:36.334Z,7.15
2023-02-14T17:30:04.921Z,7.16
2023-02-14T17:32:32.244Z,7.12
2023-02-14T17:35:01.169Z,7.13
2023-02-14T17:37:29.478Z,7.12
2023-02-14T17:39:56.509Z,7.07
2023-02-14T17:42:23.847Z,7.06
2023-02-14T17:44:51.022Z,7.05
2023-02-14T17:47:18.320Z,6.98
2023-02-14T17:49:49.460Z,6.99
2023-02-14T17:52:18.882Z,7.05
2023-02-14T17:54:45.946Z,7.07
2023-02-14T17:57:13.332Z,7.04
2023-02-14T17:59:40.482Z,7.05
2023-02-14T18:02:08.088Z,7.12
2023-02-14T18:04:37.265Z,7.08
2023-02-14T18:07:05.925Z,7.06
2023-02-14T18:09:33.460Z,7.04
2023-02-14T18:12:00.980Z,7.10
2023-02-14T18:14:28.131Z,7.15
2023-02-14T18:16:55.371Z,7.15
2023-02-14T18:19:22.500Z,7.15
2023-02-14T18:21:49.842Z,7.12
2023-02-14T18:24:17.004Z,7.05
2023-02-14T18:26:49.009Z,6.98
2023-02-14T18:29:20.858Z,6.85
2023-02-14T18:32:00.699Z,6.74
2023-02-14T18:34:28.641Z,6.73
2023-02-14T18:37:04.665Z,6.77
2023-02-14T18:39:32.782Z,6.74
2023-02-14T18:42:01.124Z,6.70
2023-02-14T18:44:29.422Z,6.70
2023-02-14T18:46:56.871Z,6.76
2023-02-14T18:49:24.086Z,6.76
2023-02-14T18:52:27.172Z,6.76
2023-02-14T18:54:58.554Z,6.64
2023-02-14T18:57:25.858Z,6.64
2023-02-14T18:59:52.789Z,6.62
2023-02-14T19:02:20.125Z,6.59
2023-02-14T19:04:47.614Z,6.52
2023-02-14T19:07:14.924Z,6.57
2023-02-14T19:09:43.133Z,6.52
2023-02-14T19:12:12.781Z,6.49
2023-02-14T19:14:39.765Z,6.59
2023-02-14T19:17:07.933Z,6.66
2023-02-14T19:19:36.023Z,6.62
2023-02-14T19:22:03.836Z,6.62
2023-02-14T19:24:31.645Z,6.62
2023-02-14T19:26:59.180Z,6.51
2023-02-14T19:29:54.710Z,6.46
2023-02-14T19:32:22.105Z,6.43
2023-02-14T19:34:49.184Z,6.35
2023-02-14T19:37:16.801Z,6.32
2023-02-14T19:39:44.333Z,6.26
2023-02-14T19:42:11.853Z,6.17
2023-02-14T19:44:40.144Z,6.21
2023-02-14T19:47:23.353Z,6.18
2023-02-14T19:49:53.263Z,6.19
2023-02-14T19:52:27.708Z,6.28
2023-02-14T19:54:57.502Z,6.30
2023-02-14T19:57:25.256Z,6.33
2023-02-14T19:59:52.470Z,6.43
2023-02-14T20:02:20.116Z,6.51
2023-02-14T20:04:47.502Z,6.42
2023-02-14T20:07:25.327Z,6.29
2023-02-14T20:10:13.015Z,6.34
2023-02-14T20:12:40.788Z,6.35
2023-02-14T20:15:10.926Z,6.27
2023-02-14T20:17:39.014Z,6.25
2023-02-14T20:20:08.514Z,6.26
2023-02-14T20:22:36.490Z,6.18
2023-02-14T20:25:03.500Z,6.14
2023-02-14T20:27:30.750Z,6.20
2023-02-14T20:29:57.706Z,6.09
2023-02-14T20:32:25.257Z,6.10
2023-02-14T20:34:52.407Z,6.18
2023-02-14T20:37:19.958Z,6.13
2023-02-14T20:39:47.056Z,6.06
2023-02-14T20:42:14.418Z,6.08
2023-02-14T20:44:55.539Z,6.09
2023-02-14T20:47:24.411Z,6.06
2023-02-14T20:49:51.404Z,6.07
2023-02-14T20:52:18.818Z,6.18
2023-02-14T20:54:45.895Z,6.28
2023-02-14T20:57:13.181Z,6.32
2023-02-14T20:59:44.735Z,6.32
2023-02-14T21:02:12.365Z,6.28
2023-02-14T21:04:39.359Z,6.20
2023-02-14T21:07:08.942Z,6.19
2023-02-14T21:09:38.090Z,6.21
2023-02-14T21:12:07.037Z,6.30
2023-02-14T21:14:34.216Z,6.24
2023-02-14T21:17:01.709Z,6.11
2023-02-14T21:19:28.809Z,6.10
2023-02-14T21:21:56.021Z,6.14
2023-02-14T21:24:24.376Z,6.20
2023-02-14T21:26:51.632Z,6.20
2023-02-14T21:29:20.299Z,6.24
2023-02-14T21:31:48.896Z,6.26
2023-02-14T21:34:18.671Z,6.24
2023-02-14T21:36:51.678Z,6.19
2023-02-14T21:39:25.970Z,6.20
2023-02-14T21:41:56.461Z,6.21
2023-02-14T21:44:42.084Z,6.12
2023-02-14T21:47:09.343Z,5.96
2023-02-14T21:49:54.783Z,5.94
2023-02-14T21:52:22.070Z,5.94
2023-02-14T21:54:49.125Z,6.00
2023-02-14T21:57:16.288Z,6.04
2023-02-14T21:59:43.453Z,6.03
2023-02-14T22:02:11.783Z,5.99
2023-02-14T22:04:38.915Z,5.94
2023-02-14T22:07:06.778Z,6.02
2023-02-14T22:09:33.657Z,6.08
2023-02-14T22:12:01.613Z,6.12
2023-02-14T22:14:29.332Z,6.12
2023-02-14T22:16:56.876Z,6.06
2023-02-14T22:19:23.920Z,6.05
2023-02-14T22:21:51.217Z,6.08
2023-02-14T22:24:18.188Z,6.10
2023-02-14T22:26:45.633Z,6.17
2023-02-14T22:29:13.440Z,6.10
2023-02-14T22:31:43.851Z,6.09
2023-02-14T22:34:14.113Z,6.08
2023-02-14T22:36:41.537Z,5.94
2023-02-14T22:39:09.522Z,5.94
2023-02-14T22:41:38.037Z,6.07
2023-02-14T22:44:06.139Z,6.11
2023-02-14T22:46:36.834Z,6.11
2023-02-14T22:49:06.159Z,6.19
2023-02-14T22:51:42.020Z,6.19
2023-02-14T22:54:14.958Z,6.17
2023-02-14T22:56:51.467Z,6.17
2023-02-14T22:59:25.150Z,6.17
2023-02-14T23:01:53.878Z,6.17
2023-02-14T23:04:25.007Z,6.28
2023-02-14T23:06:54.390Z,6.20
2023-02-14T23:09:22.370Z,6.11
2023-02-14T23:11:51.062Z,6.06
2023-02-14T23:14:38.153Z,5.99
2023-02-14T23:17:18.840Z,5.97
2023-02-14T23:20:04.961Z,5.90
2023-02-14T23:22:40.897Z,5.93
2023-02-14T23:25:12.073Z,5.89
2023-02-14T23:27:47.477Z,5.94
2023-02-14T23:30:18.356Z,6.02
2023-02-14T23:32:45.976Z,5.94
2023-02-14T23:35:14.037Z,5.95
2023-02-14T23:37:41.852Z,5.91
2023-02-14T23:40:09.985Z,5.93
2023-02-14T23:42:37.587Z,5.94
2023-02-14T23:45:23.723Z,6.02
2023-02-14T23:47:51.029Z,5.99
2023-02-14T23:50:18.166Z,6.02
2023-02-14T23:52:45.521Z,6.05
2023-02-14T23:55:13.399Z,6.05
2023-02-14T23:57:40.783Z,6.01
